Time;durP1;ratioP1;P1;durP2;ratioP2;P2;SDS_P1;SDS_P2;PMS_P1;PMS_P2;Temp;Humidity;BMP_temperature;BMP_pressure;BME280_temperature;BME280_humidity;BME280_pressure;Samples;Min_cycle;Max_cycle;Signal;HPM_P1;HPM_P2
2022/05/09 00:01:15;;;;;;;14.15;6.35;;;;;;;13.78;46.32;100607.82;1763121;80;21074;-72
2022/05/09 00:03:42;;;;;;;12.53;6.10;;;;;;;13.79;46.27;100609.98;1716633;82;21054;-69
2022/05/09 00:06:10;;;;;;;7.78;3.50;;;;;;;13.81;46.56;100626.16;1737705;81;21085;-69
2022/05/09 00:08:41;;;;;;;4.65;2.83;;;;;;;13.85;51.62;100629.36;1767701;79;21019;-68
2022/05/09 00:11:12;;;;;;;9.10;3.45;;;;;;;14.26;53.52;100625.14;1758563;81;21849;-71
2022/05/09 00:13:40;;;;;;;5.67;3.15;;;;;;;14.68;54.75;100636.86;1757842;81;20976;-72
2022/05/09 00:16:08;;;;;;;5.15;3.17;;;;;;;14.85;56.00;100633.45;1761698;80;21098;-72
2022/05/09 00:18:37;;;;;;;5.05;2.60;;;;;;;14.91;56.38;100623.23;1760805;80;21053;-69
2022/05/09 00:21:04;;;;;;;5.78;3.08;;;;;;;14.93;54.76;100626.59;1757435;81;20960;-69
2022/05/09 00:23:32;;;;;;;7.80;2.95;;;;;;;15.08;54.15;100623.83;1793019;78;21948;-69
2022/05/09 00:26:01;;;;;;;5.97;3.05;;;;;;;15.21;52.70;100617.68;1787314;78;21034;-69
2022/05/09 00:28:29;;;;;;;5.17;3.30;;;;;;;15.31;52.00;100619.81;1792493;78;21006;-69
2022/05/09 00:30:58;;;;;;;5.37;3.40;;;;;;;15.36;51.73;100616.23;1792395;79;21026;-69
2022/05/09 00:33:25;;;;;;;5.05;3.05;;;;;;;15.38;50.96;100614.75;1792470;80;21434;-69
2022/05/09 00:35:53;;;;;;;5.95;3.40;;;;;;;15.40;50.86;100612.28;1791541;78;21950;-70
2022/05/09 00:38:20;;;;;;;12.05;4.20;;;;;;;15.40;50.83;100609.62;1753554;80;21054;-69
2022/05/09 00:43:36;;;;;;;8.48;4.15;;;;;;;15.31;51.41;100619.81;1724152;81;20962;-69
2022/05/09 00:46:05;;;;;;;8.75;3.95;;;;;;;15.18;51.77;100616.66;1754896;80;20991;-69
2022/05/09 00:48:32;;;;;;;9.18;4.42;;;;;;;15.09;51.94;100611.70;1741483;81;22547;-70
2022/05/09 00:51:00;;;;;;;8.40;4.10;;;;;;;15.02;51.89;100611.93;1713161;82;20908;-69
2022/05/09 00:53:27;;;;;;;9.88;4.50;;;;;;;14.93;51.63;100605.31;1727807;82;21467;-70
2022/05/09 00:55:58;;;;;;;7.25;4.28;;;;;;;14.84;51.44;100601.69;1731825;82;20998;-69
2022/05/09 00:58:46;;;;;;;9.28;4.20;;;;;;;14.78;51.54;100595.63;1738751;81;21004;-69
2022/05/09 01:01:15;;;;;;;7.55;4.83;;;;;;;14.71;51.68;100599.84;1735183;82;22464;-69
2022/05/09 01:03:56;;;;;;;10.63;4.67;;;;;;;14.58;51.58;100597.00;1738848;81;20982;-69
2022/05/09 01:06:24;;;;;;;8.13;4.60;;;;;;;14.48;52.27;100597.50;1738458;81;21016;-69
2022/05/09 01:08:51;;;;;;;9.38;4.65;;;;;;;14.36;52.77;100597.73;1731278;82;21517;-69
2022/05/09 01:11:20;;;;;;;10.95;4.72;;;;;;;14.22;53.85;100591.88;1717934;81;21068;-69
2022/05/09 01:13:55;;;;;;;9.38;4.40;;;;;;;14.09;54.23;100601.95;1755192;81;21794;-69
2022/05/09 01:16:23;;;;;;;8.85;4.70;;;;;;;13.95;54.56;100593.88;1755294;80;20954;-69
2022/05/09 01:18:52;;;;;;;10.03;5.10;;;;;;;13.79;53.86;100592.24;1735734;82;21453;-69
2022/05/09 01:21:38;;;;;;;7.40;4.30;;;;;;;13.68;53.82;100590.55;1738673;82;21396;-69
2022/05/09 01:24:09;;;;;;;9.30;4.75;;;;;;;13.62;53.98;100588.45;1737958;82;20997;-69
2022/05/09 01:26:36;;;;;;;8.93;5.20;;;;;;;13.61;54.72;100586.78;1730384;81;21841;-69
2022/05/09 01:29:08;;;;;;;9.55;5.33;;;;;;;13.54;55.11;100593.59;1726016;81;20986;-69
2022/05/09 01:31:36;;;;;;;8.20;4.78;;;;;;;13.44;55.40;100597.55;1709602;83;21083;-69
2022/05/09 01:34:04;;;;;;;8.23;4.85;;;;;;;13.36;54.28;100597.86;1732291;82;21095;-69
2022/05/09 01:36:32;;;;;;;8.18;5.20;;;;;;;13.30;54.36;100615.63;1738341;81;21011;-69
2022/05/09 01:39:11;;;;;;;8.80;4.75;;;;;;;13.25;54.42;100618.70;1723117;81;21922;-69
2022/05/09 01:41:46;;;;;;;8.33;4.50;;;;;;;13.25;54.50;100609.91;1733492;81;20997;-69
2022/05/09 01:44:15;;;;;;;9.15;4.55;;;;;;;13.23;54.09;100600.76;1765644;81;21021;-69
2022/05/09 01:49:30;;;;;;;12.63;4.72;;;;;;;13.26;53.90;100613.75;1739792;81;21086;-69
2022/05/09 01:52:00;;;;;;;9.65;5.22;;;;;;;13.18;54.82;100607.73;1729968;81;22565;-69
2022/05/09 01:54:28;;;;;;;10.65;5.15;;;;;;;13.11;54.96;100605.25;1742356;81;21077;-69
2022/05/09 01:56:55;;;;;;;10.50;4.87;;;;;;;13.07;55.10;100612.30;1758050;80;21102;-69
2022/05/09 01:59:23;;;;;;;10.48;4.87;;;;;;;13.03;55.13;100613.55;1735473;81;20979;-69
2022/05/09 02:02:00;;;;;;;8.90;4.55;;;;;;;12.99;55.12;100609.45;1756335;81;21054;-69
2022/05/09 02:04:27;;;;;;;9.38;5.08;;;;;;;12.91;55.22;100610.11;1758630;81;22443;-70
2022/05/09 02:06:55;;;;;;;14.58;5.22;;;;;;;12.85;55.25;100610.65;1755229;80;20971;-69
2022/05/09 02:09:22;;;;;;;8.00;4.83;;;;;;;12.82;55.02;100603.77;1736404;81;20946;-69
2022/05/09 02:11:49;;;;;;;10.63;5.00;;;;;;;12.80;54.81;100603.07;1766295;79;21015;-69
2022/05/09 02:14:17;;;;;;;14.78;4.95;;;;;;;12.79;54.71;100601.88;1765442;81;21078;-69
2022/05/09 02:16:46;;;;;;;7.47;5.20;;;;;;;12.77;55.48;100599.85;1757148;79;21788;-69
2022/05/09 02:19:13;;;;;;;7.90;4.70;;;;;;;12.71;55.95;100617.10;1765828;81;20990;-69
2022/05/09 02:21:40;;;;;;;10.50;5.30;;;;;;;12.67;56.18;100616.18;1764166;81;21018;-69
2022/05/09 02:24:08;;;;;;;12.60;5.10;;;;;;;12.63;56.12;100612.92;1764853;79;21456;-69
2022/05/09 02:26:37;;;;;;;8.95;5.22;;;;;;;12.58;56.21;100609.84;1764355;80;20955;-70
2022/05/09 02:29:04;;;;;;;9.43;4.95;;;;;;;12.51;56.28;100610.83;1765983;81;21845;-69
2022/05/09 02:31:34;;;;;;;7.85;4.65;;;;;;;12.48;56.12;100621.69;1766031;81;20960;-69
2022/05/09 02:34:01;;;;;;;9.10;5.33;;;;;;;12.44;55.89;100617.59;1768190;79;21418;-69
2022/05/09 02:36:28;;;;;;;10.53;4.72;;;;;;;12.37;56.03;100613.80;1737206;81;21497;-69
2022/05/09 02:38:57;;;;;;;8.53;5.10;;;;;;;12.29;55.91;100612.27;1766147;79;20955;-70
2022/05/09 02:41:26;;;;;;;10.00;5.22;;;;;;;12.24;56.20;100615.28;1767630;80;21842;-70
2022/05/09 02:43:53;;;;;;;8.08;5.05;;;;;;;12.20;56.32;100620.97;1716045;81;20983;-70
2022/05/09 02:46:20;;;;;;;9.78;5.20;;;;;;;12.15;56.45;100626.63;1700672;82;20996;-69
2022/05/09 02:48:48;;;;;;;10.98;5.28;;;;;;;12.12;56.41;100628.70;1754491;81;21042;-70
2022/05/09 02:51:17;;;;;;;7.87;5.20;;;;;;;12.08;56.42;100620.17;1755487;81;20995;-70
2022/05/09 02:53:45;;;;;;;8.33;5.28;;;;;;;12.07;56.46;100623.80;1753880;80;21925;-70
2022/05/09 02:56:12;;;;;;;12.25;5.42;;;;;;;12.04;56.58;100630.16;1757200;80;21466;-70
2022/05/09 02:58:39;;;;;;;8.78;5.33;;;;;;;12.01;56.64;100627.77;1755571;81;20990;-70
2022/05/09 03:01:07;;;;;;;11.30;5.60;;;;;;;12.03;56.62;100633.77;1747957;80;21046;-70
2022/05/09 03:06:20;;;;;;;9.55;5.55;;;;;;;12.02;56.41;100641.36;1742534;80;22000;-70
2022/05/09 03:08:47;;;;;;;9.85;5.85;;;;;;;12.01;56.55;100643.66;1754962;80;21512;-71
2022/05/09 03:11:15;;;;;;;11.20;5.47;;;;;;;11.98;56.67;100645.23;1743659;81;20943;-70
2022/05/09 03:13:44;;;;;;;9.80;5.15;;;;;;;11.96;56.69;100651.59;1742871;80;21010;-70
2022/05/09 03:16:11;;;;;;;11.48;5.40;;;;;;;11.95;56.78;100661.34;1753348;80;20990;-71
2022/05/09 03:18:39;;;;;;;10.15;5.35;;;;;;;11.93;56.70;100657.14;1748179;80;21469;-70
2022/05/09 03:21:06;;;;;;;11.22;5.72;;;;;;;11.93;56.33;100657.14;1731095;81;20982;-71
2022/05/09 03:23:33;;;;;;;9.05;5.67;;;;;;;11.95;56.11;100660.02;1739600;81;21421;-70
2022/05/09 03:26:00;;;;;;;9.03;5.72;;;;;;;11.97;55.88;100660.77;1749733;80;21120;-70
2022/05/09 03:28:29;;;;;;;8.08;5.37;;;;;;;12.01;56.02;100662.19;1698039;82;21027;-71
2022/05/09 03:30:57;;;;;;;9.48;5.47;;;;;;;12.07;56.48;100663.98;1741288;81;22712;-71
2022/05/09 03:33:27;;;;;;;9.15;5.28;;;;;;;12.22;57.21;100669.34;1683593;85;20950;-71
2022/05/09 03:35:56;;;;;;;7.05;5.30;;;;;;;12.41;57.67;100670.84;1739811;80;20971;-71
2022/05/09 03:38:23;;;;;;;12.78;5.55;;;;;;;12.61;58.06;100670.52;1734313;80;21417;-71
2022/05/09 03:40:51;;;;;;;8.78;5.50;;;;;;;12.80;58.05;100668.50;1754628;81;20947;-71
2022/05/09 03:43:18;;;;;;;9.75;5.58;;;;;;;12.95;58.19;100667.70;1756174;80;21826;-71
2022/05/09 03:45:46;;;;;;;10.20;5.72;;;;;;;13.08;58.38;100666.52;1719723;81;21063;-71
2022/05/09 03:48:13;;;;;;;9.08;5.70;;;;;;;13.22;58.35;100665.84;1723955;82;20953;-71
2022/05/09 03:50:40;;;;;;;9.55;5.62;;;;;;;13.35;58.29;100670.47;1762711;80;21081;-71
2022/05/09 03:53:07;;;;;;;14.53;5.80;;;;;;;13.44;58.39;100669.19;1735750;82;21066;-71
2022/05/09 03:55:35;;;;;;;10.40;5.53;;;;;;;13.55;58.45;100674.89;1733770;81;21867;-71
2022/05/09 03:58:03;;;;;;;8.13;5.10;;;;;;;13.62;58.36;100677.86;1723007;81;21013;-71
2022/05/09 04:00:33;;;;;;;9.50;5.42;;;;;;;13.69;58.38;100678.98;1715240;81;21113;-71
2022/05/09 04:03:00;;;;;;;13.10;6.25;;;;;;;13.75;58.37;100669.16;1737326;81;21051;-71
2022/05/09 04:05:30;;;;;;;9.18;5.97;;;;;;;13.79;58.44;100673.70;1720596;82;21039;-70
2022/05/09 04:07:58;;;;;;;9.70;6.58;;;;;;;13.83;58.38;100681.28;1727269;81;21851;-71
2022/05/09 04:10:30;;;;;;;9.30;5.35;;;;;;;13.89;58.45;100679.39;1718016;81;21047;-70
2022/05/09 04:12:58;;;;;;;7.92;5.60;;;;;;;13.94;58.59;100681.16;1739604;78;20964;-71
2022/05/09 04:18:10;;;;;;;10.65;5.53;;;;;;;14.02;58.93;100691.11;1722370;81;21506;-71
2022/05/09 04:20:38;;;;;;;14.90;6.10;;;;;;;14.06;59.10;100696.98;1721198;82;21828;-71
2022/05/09 04:23:06;;;;;;;9.65;5.90;;;;;;;14.09;59.26;100689.60;1746300;81;20988;-71
2022/05/09 04:25:33;;;;;;;10.82;5.58;;;;;;;14.13;59.53;100696.31;1739934;81;20956;-71
2022/05/09 04:28:04;;;;;;;10.53;5.75;;;;;;;14.18;59.55;100695.39;1727710;82;21462;-71
2022/05/09 04:30:34;;;;;;;8.05;5.30;;;;;;;14.28;59.61;100698.06;1718316;81;21046;-71
2022/05/09 04:33:01;;;;;;;8.25;5.80;;;;;;;14.38;59.71;100704.72;1743258;81;21940;-71
2022/05/09 04:35:29;;;;;;;8.58;5.58;;;;;;;14.47;59.58;100698.61;1740403;81;20883;-71
2022/05/09 04:37:56;;;;;;;7.50;5.00;;;;;;;14.55;59.57;100707.57;1734710;82;21537;-71
2022/05/09 04:40:28;;;;;;;9.40;5.33;;;;;;;14.65;59.47;100708.06;1739315;81;21004;-72
2022/05/09 04:42:59;;;;;;;10.28;5.30;;;;;;;14.72;59.56;100704.71;1738646;81;20959;-71
2022/05/09 04:45:28;;;;;;;7.40;4.83;;;;;;;14.80;59.54;100708.84;1771849;79;22506;-71
2022/05/09 04:47:55;;;;;;;8.28;4.87;;;;;;;14.89;59.62;100704.01;1759605;79;21062;-71
2022/05/09 04:50:24;;;;;;;5.55;4.78;;;;;;;14.99;59.83;100705.82;1735841;82;20991;-71
2022/05/09 04:52:51;;;;;;;5.10;4.53;;;;;;;15.08;59.78;100710.29;1709448;82;21043;-71
2022/05/09 04:55:18;;;;;;;7.40;4.90;;;;;;;15.16;59.59;100703.27;1793678;78;21093;-71
2022/05/09 04:57:50;;;;;;;6.85;4.17;;;;;;;15.27;59.89;100714.73;1783190;79;21958;-71
2022/05/09 05:00:20;;;;;;;9.40;3.70;;;;;;;15.35;59.71;100716.19;1789214;78;21006;-71
2022/05/09 05:02:48;;;;;;;5.17;3.58;;;;;;;15.43;59.36;100710.95;1775594;79;20982;-71
2022/05/09 05:05:15;;;;;;;4.08;3.25;;;;;;;15.53;59.11;100716.25;1732090;82;20987;-71
2022/05/09 05:07:43;;;;;;;5.42;3.72;;;;;;;15.59;59.06;100717.84;1764394;80;21402;-71
2022/05/09 05:10:11;;;;;;;7.03;3.80;;;;;;;15.63;58.62;100720.62;1791248;78;21932;-71
2022/05/09 05:12:39;;;;;;;6.62;3.50;;;;;;;15.68;58.63;100720.16;1787838;80;20999;-71
2022/05/09 05:15:08;;;;;;;4.25;3.22;;;;;;;15.79;58.76;100721.30;1791198;78;21355;-71
2022/05/09 05:17:35;;;;;;;5.87;3.60;;;;;;;15.90;58.51;100729.09;1755238;79;21017;-73
2022/05/09 05:20:09;;;;;;;3.72;3.35;;;;;;;16.00;58.24;100721.05;1793818;78;21391;-72
2022/05/09 05:22:37;;;;;;;5.15;3.67;;;;;;;16.07;57.81;100723.98;1790852;78;21359;-71
2022/05/09 05:25:06;;;;;;;4.53;3.50;;;;;;;16.09;57.73;100720.66;1764118;79;21513;-71
2022/05/09 05:27:33;;;;;;;4.75;3.40;;;;;;;16.14;57.61;100721.07;1757257;81;21466;-72
2022/05/09 05:30:01;;;;;;;4.10;3.30;;;;;;;16.18;57.71;100724.61;1758134;81;21060;-71
2022/05/09 05:32:31;;;;;;;5.08;3.62;;;;;;;16.21;57.65;100727.00;1759975;81;21110;-71
2022/05/09 05:34:59;;;;;;;3.65;3.15;;;;;;;16.25;57.87;100719.03;1760389;81;21799;-71
2022/05/09 05:37:26;;;;;;;6.35;3.35;;;;;;;16.33;57.97;100725.45;1791189;80;21042;-71
2022/05/09 05:39:53;;;;;;;4.22;3.25;;;;;;;16.35;57.90;100732.30;1791584;79;21016;-70
2022/05/09 05:42:22;;;;;;;5.00;3.30;;;;;;;16.39;58.10;100735.48;1791537;79;20979;-70
2022/05/09 05:44:50;;;;;;;3.92;2.87;;;;;;;16.41;57.86;100742.37;1783482;80;21509;-71
2022/05/09 05:47:19;;;;;;;4.40;2.92;;;;;;;16.37;57.78;100740.97;1755739;80;22553;-70
2022/05/09 05:49:47;;;;;;;3.98;2.80;;;;;;;16.28;58.08;100743.20;1717100;82;21004;-71
2022/05/09 05:52:14;;;;;;;3.12;2.60;;;;;;;16.18;58.04;100746.42;1701032;82;21039;-71
2022/05/09 05:54:46;;;;;;;4.40;2.98;;;;;;;16.13;58.61;100750.88;1740101;81;21056;-72
2022/05/09 05:57:31;;;;;;;4.83;2.70;;;;;;;16.10;58.65;100752.48;1762101;80;21050;-72
2022/05/09 06:00:05;;;;;;;3.40;2.52;;;;;;;16.14;58.92;100753.05;1779407;80;21807;-69
2022/05/09 06:02:41;;;;;;;5.60;2.80;;;;;;;16.18;59.06;100760.59;1776832;80;21122;-71
2022/05/09 06:05:16;;;;;;;3.37;2.37;;;;;;;16.20;58.93;100759.94;1779426;80;20998;-71
2022/05/09 06:07:43;;;;;;;4.05;2.75;;;;;;;16.17;58.86;100762.07;1782463;80;21037;-72
2022/05/09 06:10:12;;;;;;;4.97;3.08;;;;;;;16.18;59.18;100765.91;1757413;81;21015;-71
2022/05/09 06:12:40;;;;;;;4.50;2.90;;;;;;;16.28;59.17;100765.86;1745116;80;21960;-71
2022/05/09 06:15:32;;;;;;;4.10;2.90;;;;;;;16.37;58.93;100776.13;1744914;81;21099;-71
2022/05/09 06:17:57;;;;;;;4.85;3.30;;;;;;;16.44;58.98;100780.72;1748190;80;21059;-71
2022/05/09 06:20:25;;;;;;;4.12;3.00;;;;;;;16.52;58.50;100782.64;1718003;83;21016;-72
2022/05/09 06:22:58;;;;;;;3.83;3.00;;;;;;;16.52;58.41;100782.64;1735650;82;21484;-71
2022/05/09 06:25:26;;;;;;;3.85;3.50;;;;;;;16.56;58.36;100784.84;1735366;82;21943;-73
2022/05/09 06:27:55;;;;;;;4.62;3.37;;;;;;;16.62;58.03;100785.25;1778210;80;21047;-71
2022/05/09 06:30:24;;;;;;;4.15;3.22;;;;;;;16.63;58.15;100783.75;1781728;79;21090;-72
2022/05/09 06:32:51;;;;;;;6.92;3.70;;;;;;;16.66;58.13;100783.45;1783428;80;20995;-71
2022/05/09 06:35:24;;;;;;;5.37;3.70;;;;;;;16.63;58.09;100791.76;1788923;79;21093;-71
2022/05/09 06:38:01;;;;;;;4.22;3.83;;;;;;;16.59;58.20;100791.20;1785917;79;22469;-71
2022/05/09 06:40:33;;;;;;;5.85;3.83;;;;;;;16.51;58.14;100791.14;1757900;81;21545;-71
2022/05/09 06:43:00;;;;;;;3.65;2.60;;;;;;;16.49;58.44;100793.09;1734817;81;21046;-72
2022/05/09 06:45:29;;;;;;;3.22;2.40;;;;;;;16.48;58.15;100803.41;1755390;81;21450;-72
2022/05/09 06:47:59;;;;;;;4.55;2.60;;;;;;;16.47;58.45;100806.23;1752932;81;21106;-73
2022/05/09 06:50:31;;;;;;;4.42;2.70;;;;;;;16.51;58.52;100808.97;1756091;81;21059;-72
2022/05/09 06:53:00;;;;;;;5.08;3.02;;;;;;;16.60;58.77;100804.91;1751882;81;21063;-72
2022/05/09 06:55:29;;;;;;;3.47;2.70;;;;;;;16.79;58.97;100807.97;1756894;80;21090;-72
2022/05/09 06:57:56;;;;;;;4.12;3.15;;;;;;;16.89;58.62;100819.91;1755291;81;20971;-72
2022/05/09 07:00:24;;;;;;;4.25;2.70;;;;;;;16.97;58.39;100820.45;1757283;81;20975;-72
2022/05/09 07:02:51;;;;;;;3.60;2.52;;;;;;;16.99;58.04;100820.67;1761113;80;21929;-72
2022/05/09 07:05:20;;;;;;;2.80;2.22;;;;;;;16.96;58.02;100824.12;1781293;79;21010;-73
2022/05/09 07:07:48;;;;;;;2.70;2.20;;;;;;;16.96;58.19;100820.95;1751209;80;21501;-73
2022/05/09 07:10:16;;;;;;;2.98;2.15;;;;;;;17.07;57.51;100824.72;1749606;81;21003;-72
2022/05/09 07:12:50;;;;;;;2.72;1.85;;;;;;;17.14;57.19;100817.79;1757207;80;20964;-71
2022/05/09 07:15:22;;;;;;;3.92;2.40;;;;;;;17.31;56.54;100827.28;1754631;80;21966;-74
2022/05/09 07:17:51;;;;;;;4.78;2.05;;;;;;;17.37;56.03;100827.98;1761625;80;21046;-73
2022/05/09 07:20:20;;;;;;;4.35;2.22;;;;;;;17.49;56.38;100830.77;1758819;80;21523;-73
2022/05/09 07:22:50;;;;;;;2.77;2.15;;;;;;;17.56;55.40;100829.13;1770635;79;38610;-75
2022/05/09 07:25:18;;;;;;;3.25;2.20;;;;;;;17.51;55.21;100833.28;1733600;81;21059;-73
2022/05/09 07:27:46;;;;;;;3.30;2.27;;;;;;;17.45;55.17;100836.90;1755283;80;21921;-71
2022/05/09 07:30:16;;;;;;;3.42;2.15;;;;;;;17.43;55.36;100835.38;1757789;80;21027;-69
2022/05/09 07:32:43;;;;;;;4.90;2.20;;;;;;;17.50;55.58;100832.45;1766907;80;21016;-72
2022/05/09 07:35:12;;;;;;;4.75;2.20;;;;;;;17.65;55.61;100841.55;1756974;80;21051;-72
2022/05/09 07:37:40;;;;;;;2.35;1.90;;;;;;;17.77;54.55;100845.36;1754411;80;21077;-72
2022/05/09 07:40:11;;;;;;;4.53;2.10;;;;;;;17.81;54.30;100854.23;1733885;80;21827;-73
2022/05/09 07:42:40;;;;;;;5.30;2.12;;;;;;;17.78;54.59;100847.88;1755350;80;21086;-73
2022/05/09 07:45:09;;;;;;;2.95;2.12;;;;;;;17.84;54.36;100857.08;1762418;80;21058;-71
2022/05/09 07:47:38;;;;;;;4.33;2.30;;;;;;;17.74;54.09;100847.33;1750449;80;21019;-72
2022/05/09 07:50:07;;;;;;;6.97;2.50;;;;;;;17.66;54.04;100839.25;1767734;80;21043;-71
2022/05/09 07:52:36;;;;;;;3.47;2.30;;;;;;;17.59;54.14;100846.70;1749319;80;21819;-71
2022/05/09 07:55:05;;;;;;;3.50;2.35;;;;;;;17.60;54.12;100847.88;1752283;80;21116;-71
2022/05/09 07:57:32;;;;;;;3.08;2.10;;;;;;;17.56;53.62;100849.16;1768604;80;21042;-73
2022/05/09 08:00:01;;;;;;;2.55;2.02;;;;;;;17.51;53.68;100855.48;1750761;80;21016;-73
2022/05/09 08:02:29;;;;;;;2.98;2.20;;;;;;;17.57;54.00;100850.03;1772835;80;21031;-72
2022/05/09 08:04:56;;;;;;;2.45;2.08;;;;;;;17.73;52.79;100859.02;1755285;81;21827;-72
2022/05/09 08:07:24;;;;;;;2.90;1.90;;;;;;;17.73;52.33;100853.67;1761489;80;20995;-72
2022/05/09 08:09:53;;;;;;;2.85;1.80;;;;;;;17.70;52.81;100862.50;1756229;81;21019;-73
2022/05/09 08:12:20;;;;;;;3.67;2.20;;;;;;;17.77;52.30;100862.73;1760763;80;21008;-72
2022/05/09 08:14:47;;;;;;;2.83;1.90;;;;;;;17.82;52.26;100861.25;1737461;80;21038;-72
2022/05/09 08:17:15;;;;;;;3.42;1.90;;;;;;;17.90;51.96;100855.96;1757399;80;21868;-72
2022/05/09 08:19:43;;;;;;;3.08;1.80;;;;;;;17.99;51.86;100855.02;1754768;80;21503;-71
2022/05/09 08:22:10;;;;;;;3.80;1.70;;;;;;;18.06;50.78;100852.56;1740978;81;21545;-73
2022/05/09 08:24:37;;;;;;;2.22;1.60;;;;;;;18.13;50.80;100854.91;1761545;80;21078;-71
2022/05/09 08:27:06;;;;;;;3.52;1.70;;;;;;;18.21;49.35;100850.11;1756411;80;21017;-71
2022/05/09 08:29:35;;;;;;;4.25;1.35;;;;;;;18.31;49.45;100843.64;1755994;81;21916;-72
2022/05/09 08:32:03;;;;;;;1.95;1.37;;;;;;;18.53;48.28;100840.91;1756309;81;21450;-72
2022/05/09 08:34:32;;;;;;;2.27;1.50;;;;;;;18.71;48.42;100843.98;1751676;79;22297;-73
2022/05/09 08:37:01;;;;;;;4.00;1.30;;;;;;;18.81;47.71;100852.70;1751799;80;21014;-71
2022/05/09 08:39:30;;;;;;;1.98;1.20;;;;;;;18.80;47.72;100846.52;1762436;80;21083;-73
2022/05/09 08:42:04;;;;;;;1.50;1.35;;;;;;;18.88;47.35;100854.56;1754522;80;21889;-72
2022/05/09 08:44:51;;;;;;;2.65;1.25;;;;;;;18.93;46.80;100847.91;1739878;81;21085;-69
2022/05/09 08:47:49;;;;;;;2.10;1.30;;;;;;;18.99;46.82;100852.08;1735275;81;21015;-72
2022/05/09 08:50:49;;;;;;;3.77;1.50;;;;;;;19.03;45.96;100857.95;1730886;81;21053;-72
2022/05/09 08:53:25;;;;;;;2.72;1.20;;;;;;;18.98;45.67;100853.58;1733483;81;21059;-71
2022/05/09 08:55:54;;;;;;;1.42;1.27;;;;;;;18.97;45.58;100850.58;1730617;81;21818;-72
2022/05/09 08:58:49;;;;;;;1.70;1.20;;;;;;;19.00;45.59;100852.91;1721741;81;21051;-72
2022/05/09 09:01:22;;;;;;;2.62;1.17;;;;;;;19.18;45.59;100858.13;1766770;81;21031;-71
2022/05/09 09:04:03;;;;;;;2.98;1.25;;;;;;;19.47;44.18;100849.60;1717445;82;21114;-73
2022/05/09 09:06:50;;;;;;;1.98;1.30;;;;;;;19.67;44.54;100853.13;1734872;81;21608;-73
2022/05/09 09:10:04;;;;;;;2.65;1.30;;;;;;;19.86;43.36;100856.46;1736240;81;21000;-72
2022/05/09 09:13:07;;;;;;;1.90;1.20;;;;;;;19.90;43.49;100864.02;1758788;80;21007;-74
2022/05/09 09:16:02;;;;;;;2.20;1.30;;;;;;;19.91;43.80;100857.64;1726546;81;21058;-73
2022/05/09 09:18:42;;;;;;;2.37;1.30;;;;;;;19.91;43.09;100856.30;1713696;82;21049;-73
2022/05/09 09:21:42;;;;;;;4.53;1.30;;;;;;;19.80;42.71;100857.16;1733665;81;21467;-73
2022/05/09 09:24:44;;;;;;;2.22;1.40;;;;;;;19.81;42.99;100850.79;1735367;81;22570;-72
2022/05/09 09:27:55;;;;;;;2.67;1.30;;;;;;;19.85;41.93;100850.77;1754132;80;21098;-71
2022/05/09 09:30:24;;;;;;;3.08;1.30;;;;;;;19.93;42.44;100843.55;1728515;81;21098;-69
2022/05/09 09:33:02;;;;;;;3.08;1.15;;;;;;;20.20;41.29;100846.84;1754055;80;21058;-69
2022/05/09 09:36:09;;;;;;;16.67;14.58;;;;;;;20.29;40.98;100845.30;1733607;81;21039;-69
2022/05/09 09:38:54;;;;;;;2.75;1.52;;;;;;;20.39;41.06;100845.09;1727948;81;21954;-69
2022/05/09 09:41:28;;;;;;;1.25;1.10;;;;;;;20.37;40.02;100843.09;1747420;81;21023;-70
2022/05/09 09:44:05;;;;;;;2.20;1.25;;;;;;;20.40;37.62;100836.02;1736648;81;21082;-69
2022/05/09 09:46:34;;;;;;;2.65;1.80;;;;;;;20.43;37.42;100840.23;1724563;81;21056;-71
2022/05/09 09:49:07;;;;;;;1.50;1.10;;;;;;;20.46;37.91;100846.58;1758623;80;21043;-68
2022/05/09 09:51:47;;;;;;;2.25;1.20;;;;;;;20.50;38.25;100847.92;1789435;78;21338;-71
2022/05/09 09:54:32;;;;;;;2.12;1.30;;;;;;;20.53;39.69;100854.27;1786724;80;21022;-70
2022/05/09 09:57:22;;;;;;;3.98;1.50;;;;;;;20.68;38.68;100846.33;1756971;80;21664;-69
2022/05/09 09:59:50;;;;;;;2.47;1.40;;;;;;;20.88;38.11;100849.40;1736263;81;21019;-70
2022/05/09 10:02:27;;;;;;;2.52;1.50;;;;;;;21.05;37.59;100845.60;1758538;81;21058;-70
2022/05/09 10:04:56;;;;;;;2.17;1.32;;;;;;;21.07;37.75;100851.63;1732724;82;21844;-71
2022/05/09 10:07:32;;;;;;;2.40;1.20;;;;;;;21.14;37.21;100852.08;1758011;81;21101;-70
2022/05/09 10:10:21;;;;;;;3.47;1.20;;;;;;;21.16;36.79;100849.21;1738789;81;21028;-70
2022/05/09 10:12:54;;;;;;;1.75;1.20;;;;;;;21.31;37.24;100856.00;1754714;81;21086;-69
2022/05/09 10:15:34;;;;;;;3.47;1.27;;;;;;;21.46;34.82;100852.03;1739293;81;21071;-70
2022/05/09 10:18:16;;;;;;;5.20;1.05;;;;;;;21.32;35.38;100859.84;1736570;82;21815;-71
2022/05/09 10:20:43;;;;;;;2.70;1.30;;;;;;;21.42;35.61;100858.26;1772948;80;21446;-71
2022/05/09 10:26:23;;;;;;;2.08;1.10;;;;;;;21.64;34.29;100855.23;1803254;78;21516;-72
2022/05/09 10:29:01;;;;;;;2.55;1.07;;;;;;;21.65;32.35;100861.77;1755543;80;21321;-72
2022/05/09 10:31:52;;;;;;;2.75;1.10;;;;;;;21.59;33.22;100858.95;1738893;81;21827;-72
2022/05/09 10:34:40;;;;;;;5.75;1.10;;;;;;;21.69;34.44;100856.85;1734720;81;21054;-70
2022/05/09 10:37:24;;;;;;;3.42;1.02;;;;;;;21.92;33.04;100862.19;1722484;81;21486;-71
2022/05/09 10:39:54;;;;;;;;;;;;;;;21.91;33.75;100854.63;1739924;81;21075;-72
2022/05/09 10:42:27;;;;;;;1.80;0.80;;;;;;;22.07;31.45;100859.02;1737792;81;20189;-74
2022/05/09 10:45:04;;;;;;;1.92;1.10;;;;;;;21.98;31.47;100852.02;1757794;80;22940;-73
2022/05/09 10:47:43;;;;;;;4.65;1.37;;;;;;;22.02;32.42;100857.89;1723409;83;21015;-75
2022/05/09 10:50:34;;;;;;;4.33;2.62;;;;;;;22.12;32.23;100857.13;1704804;82;21082;-74
2022/05/09 10:53:17;;;;;;;4.83;1.30;;;;;;;22.19;31.59;100861.56;1750410;81;21061;-74
2022/05/09 10:56:11;;;;;;;2.85;1.20;;;;;;;22.24;31.68;100862.37;1734074;82;21057;-75
2022/05/09 10:58:49;;;;;;;2.80;1.50;;;;;;;22.40;31.57;100862.70;1751953;80;21821;-75
2022/05/09 11:01:30;;;;;;;4.22;1.30;;;;;;;22.46;31.23;100853.34;1734353;81;21044;-74
2022/05/09 11:04:04;;;;;;;17.85;14.33;;;;;;;22.65;31.67;100858.65;1750540;81;21114;-75
2022/05/09 11:06:57;;;;;;;2.37;1.60;;;;;;;22.81;30.40;100849.52;1746630;81;21098;-75
2022/05/09 11:09:55;;;;;;;3.27;1.37;;;;;;;22.84;29.33;100855.38;1724227;82;21023;-76
2022/05/09 11:12:59;;;;;;;5.58;1.52;;;;;;;22.84;28.98;100847.30;1734968;81;22505;-75
2022/05/09 11:15:35;;;;;;;;;;;;;;;22.98;29.72;100841.56;1731009;81;21008;-76
2022/05/09 11:18:35;;;;;;;4.35;1.60;;;;;;;23.14;28.59;100845.33;1733205;81;20165;-74
2022/05/09 11:21:17;;;;;;;2.95;1.40;;;;;;;23.16;28.38;100841.09;1747901;81;21048;-74
2022/05/09 11:23:53;;;;;;;4.75;1.60;;;;;;;23.11;29.00;100834.12;1733339;81;21027;-74
2022/05/09 11:26:54;;;;;;;2.98;2.12;;;;;;;23.21;28.31;100837.32;1754437;81;21922;-74
2022/05/09 11:29:35;;;;;;;2.98;1.80;;;;;;;23.25;28.45;100837.25;1709172;81;22021;-78
2022/05/09 11:32:17;;;;;;;5.78;1.87;;;;;;;23.23;27.22;100836.61;1752393;80;21070;-75
2022/05/09 11:35:31;;;;;;;5.50;1.92;;;;;;;23.13;28.02;100834.23;1723312;81;21082;-73
2022/05/09 11:38:35;;;;;;;3.12;2.00;;;;;;;23.26;28.45;100847.03;1727445;81;21847;-75
2022/05/09 11:41:22;;;;;;;3.17;2.05;;;;;;;23.37;28.27;100839.77;1751714;80;23068;-71
2022/05/09 11:44:12;;;;;;;5.03;1.90;;;;;;;23.34;27.90;100836.09;1732340;81;21247;-74
2022/05/09 11:47:18;;;;;;;4.50;1.80;;;;;;;23.35;27.09;100833.70;1744528;80;21125;-76
2022/05/09 11:50:18;;;;;;;3.98;2.30;;;;;;;23.23;27.15;100835.78;1732841;81;21359;-74
2022/05/09 11:52:45;;;;;;;5.22;2.20;;;;;;;23.05;27.00;100830.32;1668024;82;21138;-76
2022/05/09 11:55:21;;;;;;;4.50;2.22;;;;;;;22.97;27.66;100825.56;1753144;80;21887;-74
2022/05/09 11:57:55;;;;;;;3.42;2.20;;;;;;;23.03;27.35;100834.23;1747638;80;21070;-79
2022/05/09 12:00:36;;;;;;;3.95;1.90;;;;;;;23.16;26.35;100831.66;1704992;83;21094;-76
2022/05/09 12:03:06;;;;;;;2.83;1.80;;;;;;;23.14;26.27;100822.43;1736925;80;21109;-81
2022/05/09 12:05:39;;;;;;;3.10;1.70;;;;;;;23.38;26.83;100840.59;1752651;80;21090;-77